Onweer radar Meer informatie blitzortung!


Regen radar Meer informatie rain snow radar


Bezoek onze andere website:

Template documentation
and downloads

And another site



Het weer levert geen direct gevaar op.    Er zijn geen waarschuwingen afgegeven.

Weather Underground Historische gegevens

Dagelijkse Samenvatting augustus 15, 2018 Eenheden:  Metrisch    Engels   Beide
« Vorige Dag
Volgende Dag »
Dagelijkse Wekelijkse Maandelijkse Jaarlijkse Aangepaste
  Huidig: Hoog: Laag: Gemiddeld:
Temperatuur: -7.6 °C -17.8 °C -7.6 °C -7.6 °C
Dauwpunt: -8.5 °C -17.8 °C -9 °C -8.8 °C
Vochtigheid: 90 % Humidity % 81 % 85 %
Wind snelheid: 7.7 km/h 0 km/h 0 km/h 8.2 km/h
Windvlaag: 15.6 km/h 0 km/h - -
Wind:SSW - - SSW
Luchtdruk: 34445.8 hPa 0 hPa 34442.4 hPa -
Neerslag: 0 mm      
Historical Graphs
 
 
Tabel voor augustus 15, 2018
Tijd Temperatuur Dauwpunt Luchtdruk Wind Wind snelheid Windvlaag Vochtigheid Regenval per uur
-17.8 °C -17.8 °C 0 hPa Calm     Humidity % 0 mm
00:04 -7.2 °C -9 °C 34462.7 hPa SSW 2.6 km/h 10.3 km/h 81 % 0 mm
00:09 -7.2 °C -8.9 °C 34462.7 hPa Calm   7.7 km/h 82 % 0 mm
00:14 -7.2 °C -8.8 °C 34462.7 hPa SSW 2.6 km/h 10.3 km/h 83 % 0 mm
00:19 -7.2 °C -8.7 °C 34466.1 hPa SSW 2.6 km/h 10.3 km/h 84 % 0 mm
00:24 -7.2 °C -8.7 °C 34466.1 hPa SSW 2.6 km/h 7.7 km/h 84 % 0 mm
00:29 -7.2 °C -8.7 °C 34466.1 hPa SSW 2.6 km/h 10.3 km/h 84 % 0 mm
00:34 -7.2 °C -8.7 °C 34466.1 hPa SSW 5.1 km/h 12.9 km/h 84 % 0 mm
00:39 -7.1 °C -8.7 °C 34466.1 hPa SSW 5.1 km/h 12.9 km/h 84 % 0 mm
00:44 -7.1 °C -8.6 °C 34466.1 hPa SSW 7.7 km/h 15.6 km/h 85 % 0 mm
00:49 -7.1 °C -8.5 °C 34462.7 hPa SSW 7.7 km/h 15.6 km/h 85 % 0 mm
00:54 -7.1 °C -8.5 °C 34462.7 hPa SSW 7.7 km/h 18.2 km/h 85 % 0 mm
00:59 -7.1 °C -8.5 °C 34462.7 hPa SSW 10.3 km/h 18.2 km/h 85 % 0 mm
01:04 -7.1 °C -8.4 °C 34462.7 hPa SSW 7.7 km/h 18.2 km/h 86 % 0 mm
01:09 -7.1 °C -8.4 °C 34466.1 hPa SSW 7.7 km/h 15.6 km/h 86 % 0 mm
01:14 -7.1 °C -8.4 °C 34466.1 hPa SSW 7.7 km/h 25.9 km/h 86 % 0 mm
01:19 -7.1 °C -8.4 °C 34466.1 hPa SSW 10.3 km/h 31.1 km/h 86 % 0 mm
01:24 -7.1 °C -8.4 °C 34462.7 hPa SSW 10.3 km/h 31.1 km/h 86 % 0 mm
01:29 -7.1 °C -8.4 °C 34462.7 hPa SSW 10.3 km/h 36.2 km/h 86 % 0 mm
02:44 -7.3 °C -8.8 °C 34455.9 hPa SSW 18.2 km/h 20.8 km/h 85 % 0 mm
02:49 -7.4 °C -8.8 °C 34452.6 hPa SSW 10.3 km/h 20.8 km/h 85 % 0 mm
02:54 -7.4 °C -8.8 °C 34455.9 hPa SSW 7.7 km/h 20.8 km/h 85 % 0 mm
02:59 -7.4 °C -8.8 °C 34455.9 hPa SSW 5.1 km/h 15.6 km/h 85 % 0 mm
03:04 -7.4 °C -8.8 °C 34455.9 hPa SSW 10.3 km/h 23.3 km/h 85 % 0 mm
03:09 -7.4 °C -8.8 °C 34452.6 hPa SSW 10.3 km/h 23.3 km/h 85 % 0 mm
03:14 -7.4 °C -8.9 °C 34452.6 hPa SSW 7.7 km/h 23.3 km/h 85 % 0 mm
03:19 -7.4 °C -8.9 °C 34455.9 hPa SSW 7.7 km/h 20.8 km/h 85 % 0 mm
03:24 -7.4 °C -8.9 °C 34452.6 hPa SSW 7.7 km/h 20.8 km/h 85 % 0 mm
03:29 -7.4 °C -8.9 °C 34452.6 hPa SW 7.7 km/h 20.8 km/h 85 % 0 mm
03:34 -7.5 °C -8.9 °C 34455.9 hPa SW 10.3 km/h 23.3 km/h 85 % 0 mm
03:39 -7.5 °C -8.9 °C 34455.9 hPa SW 10.3 km/h 25.9 km/h 85 % 0 mm
03:44 -7.5 °C -8.8 °C 34452.6 hPa SSW 7.7 km/h 25.9 km/h 86 % 0 mm
03:49 -7.6 °C -8.9 °C 34452.6 hPa SSW 7.7 km/h 20.8 km/h 86 % 0 mm
03:54 -7.6 °C -8.9 °C 34455.9 hPa SSW 7.7 km/h 18.2 km/h 86 % 0 mm
03:59 -7.6 °C -8.9 °C 34452.6 hPa SSW 10.3 km/h 25.9 km/h 86 % 0 mm
04:04 -7.6 °C -8.8 °C 34452.6 hPa SSW 10.3 km/h 25.9 km/h 87 % 0 mm
04:09 -7.6 °C -8.8 °C 34452.6 hPa SSW 10.3 km/h 23.3 km/h 87 % 0 mm
04:14 -7.6 °C -8.8 °C 34452.6 hPa SSW 7.7 km/h 18.2 km/h 87 % 0 mm
04:19 -7.6 °C -8.8 °C 34452.6 hPa SSW 10.3 km/h 25.9 km/h 87 % 0 mm
04:24 -7.6 °C -8.8 °C 34452.6 hPa SW 12.9 km/h 25.9 km/h 87 % 0 mm
04:29 -7.6 °C -8.7 °C 34452.6 hPa SSW 10.3 km/h 25.9 km/h 88 % 0 mm
04:34 -7.6 °C -8.7 °C 34452.6 hPa SSW 12.9 km/h 25.9 km/h 88 % 0 mm
04:39 -7.6 °C -8.7 °C 34452.6 hPa SW 12.9 km/h 25.9 km/h 88 % 0 mm
04:44 -7.6 °C -8.7 °C 34449.2 hPa SSW 10.3 km/h 20.8 km/h 88 % 0 mm
04:49 -7.6 °C -8.7 °C 34449.2 hPa SSW 10.3 km/h 20.8 km/h 88 % 0 mm
04:54 -7.6 °C -8.7 °C 34449.2 hPa SSW 7.7 km/h 20.8 km/h 88 % 0 mm
04:59 -7.6 °C -8.7 °C 34445.8 hPa SSW 7.7 km/h 20.8 km/h 88 % 0 mm
05:04 -7.6 °C -8.6 °C 34442.4 hPa SSW 7.7 km/h 20.8 km/h 89 % 0 mm
05:09 -7.6 °C -8.6 °C 34442.4 hPa SSW 7.7 km/h 18.2 km/h 89 % 0 mm
05:14 -7.6 °C -8.6 °C 34445.8 hPa SSW 10.3 km/h 23.3 km/h 89 % 0 mm
05:19 -7.6 °C -8.6 °C 34445.8 hPa SSW 12.9 km/h 23.3 km/h 89 % 0 mm
05:24 -7.6 °C -8.5 °C 34445.8 hPa SSW 7.7 km/h 18.2 km/h 90 % 0 mm
05:29 -7.6 °C -8.5 °C 34442.4 hPa SSW 7.7 km/h 15.6 km/h 90 % 0 mm
05:34 -7.6 °C -8.5 °C 34445.8 hPa SSW 10.3 km/h 23.3 km/h 90 % 0 mm
05:39 -7.6 °C -8.5 °C 34445.8 hPa SSW 7.7 km/h 23.3 km/h 90 % 0 mm
05:44 -7.5 °C -8.4 °C 34445.8 hPa SSW 7.7 km/h 15.6 km/h 90 % 0 mm
05:49 -7.6 °C -8.5 °C 34445.8 hPa SSW 7.7 km/h 15.6 km/h 90 % 0 mm
Vlaardingen meteo3131
Gegevens verzameld door Weather Underground - 1.75 mb

Script ontwikkeld door  Jim McMurry - jmcmurry@mwt.net Aangepast voor de template door  Wim van der Kuil - Leuven-Template.eu

U vindt ons ook hier:

Het Weer Aktueel

European Weather Network

Weather Underground

WeatherlinkIP

HAMweather, WeatherForYou, PWS Weather

Apparatuur in gebruik:

Weerstation
Davis VP2

Weerprogramma
Cumulus

Weercomputer
Zotac

Webleverancier
Quick Servers

Davis VP2

Cumulus

Zotac

Quick Servers